createdAt,value
2023-02-27T00:03:49.177Z,12.27
2023-02-27T00:08:52.169Z,13.97
2023-02-27T00:13:55.178Z,15.50
2023-02-27T00:19:01.526Z,7.40
2023-02-27T00:24:05.443Z,6.20
2023-02-27T00:29:08.426Z,4.77
2023-02-27T00:34:11.570Z,5.83
2023-02-27T00:39:15.705Z,6.80
2023-02-27T00:44:19.134Z,8.13
2023-02-27T00:49:22.108Z,10.33
2023-02-27T00:54:24.917Z,7.17
2023-02-27T00:59:28.003Z,6.40
2023-02-27T01:04:30.948Z,5.53
2023-02-27T01:09:34.120Z,5.70
2023-02-27T01:14:37.385Z,5.43
2023-02-27T01:19:41.394Z,6.23
2023-02-27T01:24:44.360Z,5.23
2023-02-27T01:29:47.180Z,3.80
2023-02-27T01:34:50.478Z,4.20
2023-02-27T01:39:53.240Z,4.13
2023-02-27T01:45:13.070Z,4.67
2023-02-27T01:50:18.034Z,4.53
2023-02-27T01:55:22.703Z,6.67
2023-02-27T02:00:26.611Z,5.30
2023-02-27T02:05:30.578Z,5.57
2023-02-27T02:10:33.982Z,6.13
2023-02-27T02:15:44.702Z,7.10
2023-02-27T02:21:14.795Z,5.67
2023-02-27T02:27:23.355Z,3.40
2023-02-27T02:32:59.847Z,4.03
2023-02-27T02:38:40.214Z,5.30
2023-02-27T02:44:45.923Z,5.10
2023-02-27T02:50:16.546Z,3.87
2023-02-27T02:55:37.199Z,5.37
2023-02-27T03:01:04.486Z,4.67
2023-02-27T03:06:34.812Z,6.33
2023-02-27T03:11:45.056Z,4.60
2023-02-27T03:16:53.610Z,5.03
2023-02-27T03:22:09.010Z,4.63
2023-02-27T03:27:12.602Z,3.90
2023-02-27T03:32:52.613Z,4.70
2023-02-27T03:38:16.610Z,5.47
2023-02-27T03:43:35.987Z,5.20
2023-02-27T03:48:44.656Z,4.07
2023-02-27T03:54:35.272Z,4.90
2023-02-27T03:59:38.844Z,4.90
2023-02-27T04:04:41.916Z,5.90
2023-02-27T04:10:12.554Z,5.03
2023-02-27T04:15:21.562Z,4.47
2023-02-27T04:20:44.559Z,5.97
2023-02-27T04:26:14.003Z,4.37
2023-02-27T04:31:30.555Z,5.17
2023-02-27T04:36:49.162Z,5.03
2023-02-27T04:42:23.934Z,7.87
2023-02-27T04:47:35.192Z,7.73
2023-02-27T04:52:44.879Z,4.65
2023-02-27T04:58:01.915Z,5.90
2023-02-27T05:03:17.131Z,6.53
2023-02-27T05:09:10.009Z,5.90
2023-02-27T05:14:21.888Z,7.63
2023-02-27T05:19:24.871Z,4.10
2023-02-27T05:24:43.507Z,4.77
2023-02-27T05:29:51.467Z,5.70
2023-02-27T05:35:20.918Z,5.63
2023-02-27T05:40:31.301Z,3.60
2023-02-27T05:45:37.776Z,4.90
2023-02-27T05:50:44.063Z,5.30
2023-02-27T05:55:56.683Z,6.03
2023-02-27T06:01:08.107Z,7.37
2023-02-27T06:06:18.261Z,5.05
2023-02-27T06:11:21.392Z,4.47
2023-02-27T06:16:24.404Z,4.60
2023-02-27T06:21:27.387Z,6.00
2023-02-27T06:26:30.348Z,5.67
2023-02-27T06:31:33.350Z,3.67
2023-02-27T06:36:36.381Z,6.23
2023-02-27T06:41:39.323Z,5.73
2023-02-27T06:46:42.428Z,5.40
2023-02-27T06:51:45.564Z,3.83
2023-02-27T06:56:48.531Z,6.83
2023-02-27T07:01:52.022Z,6.10
2023-02-27T07:07:34.352Z,6.57
2023-02-27T07:12:17.779Z,3.57
2023-02-27T07:17:22.549Z,4.33
2023-02-27T07:22:25.416Z,4.17
2023-02-27T07:27:28.184Z,4.43
2023-02-27T07:32:31.194Z,3.80
2023-02-27T07:37:34.175Z,3.70
2023-02-27T07:42:37.226Z,6.40
2023-02-27T07:47:40.054Z,5.87
2023-02-27T07:52:44.443Z,13.17
2023-02-27T07:57:47.446Z,17.10
2023-02-27T08:02:50.630Z,9.63
2023-02-27T08:07:53.697Z,5.17
2023-02-27T08:12:56.913Z,11.97
2023-02-27T08:18:00.041Z,6.10
2023-02-27T08:23:03.084Z,16.23
2023-02-27T08:28:06.060Z,7.50
2023-02-27T08:33:08.987Z,7.47
2023-02-27T08:38:11.909Z,6.43
2023-02-27T08:43:14.693Z,8.30
2023-02-27T08:48:18.619Z,9.07
2023-02-27T08:53:22.999Z,7.03
2023-02-27T08:58:26.136Z,10.73
2023-02-27T09:03:29.244Z,6.37
2023-02-27T09:08:32.688Z,7.50
2023-02-27T09:13:35.667Z,6.10
2023-02-27T09:18:38.641Z,6.17
2023-02-27T09:23:41.948Z,7.70
2023-02-27T09:28:45.084Z,5.10
2023-02-27T09:33:48.090Z,5.10
2023-02-27T09:38:51.126Z,8.77
2023-02-27T09:43:54.049Z,6.80
2023-02-27T09:49:04.922Z,10.70
2023-02-27T09:54:10.492Z,6.28
2023-02-27T09:59:25.269Z,6.30
2023-02-27T10:04:50.998Z,13.83
2023-02-27T10:10:25.867Z,6.07
2023-02-27T10:15:39.207Z,4.33
2023-02-27T10:21:02.787Z,7.03
2023-02-27T10:26:07.694Z,4.53
2023-02-27T10:31:21.455Z,9.40
2023-02-27T10:36:33.549Z,7.53
2023-02-27T10:41:39.960Z,11.87
2023-02-27T10:46:43.461Z,6.63
2023-02-27T10:52:04.418Z,5.27
2023-02-27T10:57:37.388Z,9.63
2023-02-27T11:02:43.749Z,10.43
2023-02-27T11:07:47.205Z,5.90
2023-02-27T11:13:18.610Z,4.70
2023-02-27T11:18:32.042Z,3.90
2023-02-27T11:23:35.891Z,8.63
2023-02-27T11:28:38.736Z,5.60
2023-02-27T11:33:54.910Z,5.23
2023-02-27T11:38:58.026Z,4.80
2023-02-27T11:44:05.632Z,6.17
2023-02-27T11:49:34.849Z,4.17
2023-02-27T11:54:58.853Z,6.63
2023-02-27T12:00:26.981Z,4.40
2023-02-27T12:05:40.298Z,6.23
2023-02-27T12:11:11.297Z,6.53
2023-02-27T12:16:39.169Z,5.00
2023-02-27T12:21:52.190Z,6.00
2023-02-27T12:27:22.304Z,7.77
2023-02-27T12:32:45.239Z,5.30
2023-02-27T12:37:48.598Z,6.87
2023-02-27T12:43:03.094Z,5.03
2023-02-27T12:48:41.073Z,4.50
2023-02-27T12:53:57.605Z,4.93
2023-02-27T12:59:09.444Z,3.37
2023-02-27T13:04:30.413Z,7.40
2023-02-27T13:10:01.226Z,5.60
2023-02-27T13:15:19.030Z,4.87
2023-02-27T13:20:22.019Z,13.57
2023-02-27T13:25:26.016Z,7.90
2023-02-27T13:30:40.878Z,4.03
2023-02-27T13:36:13.297Z,5.63
2023-02-27T13:46:33.263Z,5.63
2023-02-27T13:51:36.140Z,5.57
2023-02-27T13:56:45.409Z,5.03
2023-02-27T14:01:58.186Z,5.87
2023-02-27T14:07:15.145Z,22.53
2023-02-27T14:12:43.982Z,6.73
2023-02-27T14:17:56.818Z,5.60
2023-02-27T14:23:17.712Z,9.40
2023-02-27T14:28:32.056Z,4.90
2023-02-27T14:33:45.431Z,7.47
2023-02-27T14:38:49.439Z,8.30
2023-02-27T14:43:57.704Z,7.67
2023-02-27T14:49:05.437Z,6.03
2023-02-27T14:54:28.224Z,6.03
2023-02-27T14:59:34.631Z,6.50
2023-02-27T15:04:37.490Z,8.20
2023-02-27T15:09:44.849Z,6.47
2023-02-27T15:14:57.368Z,10.40
2023-02-27T15:20:00.524Z,13.17
2023-02-27T15:25:07.039Z,9.53
2023-02-27T15:30:21.829Z,8.50
2023-02-27T15:35:42.774Z,9.90
2023-02-27T15:40:45.756Z,9.67
2023-02-27T15:45:50.251Z,10.67
2023-02-27T15:51:04.406Z,9.93
2023-02-27T15:56:13.399Z,27.63
2023-02-27T16:01:35.192Z,13.07
2023-02-27T16:06:40.973Z,30.27
2023-02-27T16:11:44.004Z,37.43
2023-02-27T16:16:56.454Z,23.47
2023-02-27T16:22:18.190Z,31.47
2023-02-27T16:27:28.753Z,35.20
2023-02-27T16:32:41.482Z,41.53
2023-02-27T16:37:46.274Z,35.17
2023-02-27T16:42:50.509Z,29.67
2023-02-27T16:47:59.323Z,33.70
2023-02-27T16:53:02.305Z,50.07
2023-02-27T16:58:06.826Z,94.00
2023-02-27T17:03:09.897Z,46.30
2023-02-27T17:08:12.899Z,107.13
2023-02-27T17:13:17.373Z,79.20
2023-02-27T17:18:20.627Z,57.57
2023-02-27T17:23:23.781Z,28.10
2023-02-27T17:28:27.232Z,31.80
2023-02-27T17:33:31.832Z,31.70
2023-02-27T17:38:35.709Z,56.80
2023-02-27T17:43:39.927Z,61.77
2023-02-27T17:48:42.934Z,51.37
2023-02-27T17:53:46.140Z,40.73
2023-02-27T17:58:49.105Z,23.70
2023-02-27T18:03:54.330Z,21.87
2023-02-27T18:08:57.904Z,36.73
2023-02-27T18:14:00.809Z,54.73
2023-02-27T18:19:06.306Z,34.20
2023-02-27T18:24:10.689Z,58.37
2023-02-27T18:29:16.311Z,32.33
2023-02-27T18:34:21.280Z,34.07
2023-02-27T18:39:24.380Z,53.20
2023-02-27T18:44:27.457Z,55.73
2023-02-27T18:49:30.376Z,43.87
2023-02-27T18:54:33.474Z,40.93
2023-02-27T18:59:37.505Z,42.20
2023-02-27T19:04:40.714Z,40.40
2023-02-27T19:09:44.690Z,34.20
2023-02-27T19:14:47.707Z,38.33
2023-02-27T19:19:51.070Z,49.47
2023-02-27T19:24:54.193Z,58.63
2023-02-27T19:29:57.222Z,37.83
2023-02-27T19:35:00.931Z,34.63
2023-02-27T19:40:04.183Z,25.57
2023-02-27T19:45:07.954Z,20.73
2023-02-27T19:50:11.771Z,28.17
2023-02-27T19:55:15.937Z,25.67
2023-02-27T20:00:19.941Z,25.83
2023-02-27T20:05:25.086Z,34.57
2023-02-27T20:10:29.124Z,31.60
2023-02-27T20:15:31.879Z,27.73
2023-02-27T20:20:34.832Z,33.77
2023-02-27T20:25:37.784Z,31.83
2023-02-27T20:30:40.771Z,23.50
2023-02-27T20:35:43.848Z,19.50
2023-02-27T20:40:46.834Z,15.53
2023-02-27T20:45:50.002Z,14.40
2023-02-27T20:50:52.770Z,16.43
2023-02-27T20:55:55.802Z,16.30
2023-02-27T21:00:58.836Z,17.87
2023-02-27T21:06:02.833Z,15.87
2023-02-27T21:11:16.048Z,19.50
2023-02-27T21:16:19.773Z,18.70
2023-02-27T21:21:28.092Z,22.17
2023-02-27T21:26:38.303Z,38.53
2023-02-27T21:31:45.225Z,34.63
2023-02-27T21:36:49.199Z,34.27
2023-02-27T21:41:52.954Z,33.07
2023-02-27T21:46:56.233Z,45.30
2023-02-27T21:51:58.989Z,40.23
2023-02-27T21:57:03.231Z,50.43
2023-02-27T22:02:06.022Z,37.37
2023-02-27T22:07:11.383Z,28.40
2023-02-27T22:12:16.204Z,24.10
2023-02-27T22:17:19.279Z,28.73
2023-02-27T22:22:22.194Z,58.97
2023-02-27T22:27:25.229Z,162.63
2023-02-27T22:32:28.855Z,25.27
2023-02-27T22:37:31.932Z,16.43
2023-02-27T22:42:34.820Z,23.13
2023-02-27T22:47:37.730Z,19.53
2023-02-27T22:52:40.629Z,19.93
2023-02-27T22:57:43.733Z,19.10
2023-02-27T23:02:46.590Z,13.03
2023-02-27T23:07:50.005Z,12.17
2023-02-27T23:12:52.742Z,14.57
2023-02-27T23:17:58.535Z,41.20
2023-02-27T23:23:01.643Z,13.17
2023-02-27T23:28:06.091Z,15.97
2023-02-27T23:33:08.972Z,11.77
2023-02-27T23:38:11.931Z,10.23
2023-02-27T23:43:33.511Z,20.13
2023-02-27T23:48:36.926Z,18.00
2023-02-27T23:53:41.708Z,17.23
2023-02-27T23:58:46.545Z,17.00
